createdAt,value
2018-09-02T00:00:30.751Z,61.50
2018-09-02T00:02:58.953Z,61.92
2018-09-02T00:05:27.970Z,62.27
2018-09-02T00:07:56.215Z,62.44
2018-09-02T00:10:24.471Z,62.40
2018-09-02T00:12:52.687Z,62.89
2018-09-02T00:15:20.973Z,62.75
2018-09-02T00:17:49.521Z,63.49
2018-09-02T00:20:17.722Z,63.58
2018-09-02T00:22:45.934Z,63.03
2018-09-02T00:25:14.157Z,63.65
2018-09-02T00:27:42.343Z,63.14
2018-09-02T00:30:10.531Z,62.93
2018-09-02T00:32:38.847Z,63.38
2018-09-02T00:35:07.407Z,64.15
2018-09-02T00:37:35.815Z,63.69
2018-09-02T00:40:04.074Z,63.65
2018-09-02T00:42:32.363Z,63.51
2018-09-02T00:45:00.663Z,63.60
2018-09-02T00:47:28.934Z,64.14
2018-09-02T00:49:57.153Z,64.66
2018-09-02T00:52:25.345Z,63.62
2018-09-02T00:54:53.556Z,63.66
2018-09-02T00:57:21.844Z,64.35
2018-09-02T00:59:50.163Z,63.65
2018-09-02T01:02:18.349Z,64.61
2018-09-02T01:04:46.556Z,64.78
2018-09-02T01:07:14.749Z,64.75
2018-09-02T01:09:42.989Z,64.18
2018-09-02T01:12:11.226Z,65.21
2018-09-02T01:14:39.426Z,65.11
2018-09-02T01:17:07.598Z,65.07
2018-09-02T01:19:35.766Z,65.78
2018-09-02T01:22:04.055Z,64.92
2018-09-02T01:24:32.347Z,65.44
2018-09-02T01:27:00.595Z,65.92
2018-09-02T01:29:28.775Z,64.93
2018-09-02T01:31:57.052Z,65.72
2018-09-02T01:34:25.361Z,65.18
2018-09-02T01:36:53.582Z,65.86
2018-09-02T01:39:21.797Z,65.12
2018-09-02T01:41:49.957Z,65.42
2018-09-02T01:44:18.183Z,66.09
2018-09-02T01:46:46.390Z,65.33
2018-09-02T01:49:14.603Z,65.50
2018-09-02T01:51:42.766Z,65.67
2018-09-02T01:54:10.950Z,65.45
2018-09-02T01:56:39.163Z,64.96
2018-09-02T01:59:07.451Z,65.81
2018-09-02T02:01:35.694Z,65.90
2018-09-02T02:04:04.019Z,66.32
2018-09-02T02:06:32.287Z,66.10
2018-09-02T02:09:00.496Z,65.81
2018-09-02T02:11:28.940Z,65.69
2018-09-02T02:13:57.131Z,66.01
2018-09-02T02:16:25.326Z,66.47
2018-09-02T02:18:53.527Z,66.12
2018-09-02T02:21:21.733Z,66.58
2018-09-02T02:23:49.980Z,66.38
2018-09-02T02:26:18.183Z,66.25
2018-09-02T02:28:46.384Z,66.67
2018-09-02T02:31:14.591Z,66.94
2018-09-02T02:33:42.785Z,66.99
2018-09-02T02:36:10.982Z,66.92
2018-09-02T02:38:39.156Z,66.91
2018-09-02T02:41:07.315Z,66.85
2018-09-02T02:43:35.512Z,67.13
2018-09-02T02:46:03.748Z,67.26
2018-09-02T02:48:32.015Z,66.84
2018-09-02T02:51:00.220Z,67.22
2018-09-02T02:53:28.402Z,67.19
2018-09-02T02:56:03.183Z,66.32
2018-09-02T02:58:31.414Z,66.43
2018-09-02T03:00:59.667Z,66.39
2018-09-02T03:03:27.842Z,66.29
2018-09-02T03:05:56.028Z,67.15
2018-09-02T03:08:24.236Z,67.03
2018-09-02T03:10:52.454Z,67.32
2018-09-02T03:13:20.772Z,67.41
2018-09-02T03:15:48.934Z,67.73
2018-09-02T03:18:17.140Z,67.03
2018-09-02T03:20:45.334Z,67.54
2018-09-02T03:23:13.585Z,66.99
2018-09-02T03:25:41.823Z,67.46
2018-09-02T03:28:09.994Z,67.46
2018-09-02T03:30:38.176Z,67.21
2018-09-02T03:33:06.423Z,67.56
2018-09-02T03:35:34.636Z,66.84
2018-09-02T03:38:02.864Z,68.04
2018-09-02T03:40:31.186Z,68.46
2018-09-02T03:42:59.362Z,67.49
2018-09-02T03:45:27.554Z,67.82
2018-09-02T03:47:55.750Z,68.20
2018-09-02T03:50:23.935Z,68.24
2018-09-02T03:52:52.162Z,68.35
2018-09-02T03:55:20.374Z,67.62
2018-09-02T03:57:48.729Z,67.98
2018-09-02T04:00:16.916Z,67.89
2018-09-02T04:02:45.128Z,68.51
2018-09-02T04:05:13.365Z,68.15
2018-09-02T04:07:41.522Z,67.87
2018-09-02T04:10:09.796Z,68.00
2018-09-02T04:12:38.069Z,67.80
2018-09-02T04:15:07.085Z,68.47
2018-09-02T04:17:35.292Z,67.50
2018-09-02T04:20:03.503Z,67.75
2018-09-02T04:22:31.752Z,67.37
2018-09-02T04:24:59.981Z,68.16
2018-09-02T04:27:28.165Z,67.50
2018-09-02T04:29:56.385Z,66.70
2018-09-02T04:32:24.535Z,66.85
2018-09-02T04:34:52.806Z,67.46
2018-09-02T04:37:21.027Z,66.97
2018-09-02T04:39:49.245Z,67.99
2018-09-02T04:42:17.535Z,66.91
2018-09-02T04:44:45.814Z,67.76
2018-09-02T04:47:13.926Z,66.88
2018-09-02T04:49:42.154Z,67.16
2018-09-02T04:52:10.363Z,67.87
2018-09-02T04:54:38.577Z,67.73
2018-09-02T04:57:06.886Z,67.56
2018-09-02T04:59:35.080Z,67.03
2018-09-02T05:02:03.310Z,67.41
2018-09-02T05:04:31.559Z,67.43
2018-09-02T05:06:59.800Z,67.34
2018-09-02T05:09:27.987Z,67.06
2018-09-02T05:11:56.191Z,66.66
2018-09-02T05:14:24.411Z,66.80
2018-09-02T05:16:52.640Z,66.70
2018-09-02T05:19:20.907Z,67.52
2018-09-02T05:21:49.099Z,67.63
2018-09-02T05:24:17.326Z,67.04
2018-09-02T05:26:45.535Z,67.21
2018-09-02T05:29:13.820Z,66.74
2018-09-02T05:31:42.062Z,67.81
2018-09-02T05:34:10.278Z,67.04
2018-09-02T05:36:38.432Z,67.03
2018-09-02T05:39:08.763Z,68.09
2018-09-02T05:41:37.031Z,67.48
2018-09-02T05:44:05.462Z,68.30
2018-09-02T05:46:33.937Z,67.93
2018-09-02T05:49:02.388Z,68.07
2018-09-02T05:51:30.830Z,68.67
2018-09-02T05:53:59.003Z,68.59
2018-09-02T05:56:27.244Z,67.89
2018-09-02T05:58:55.458Z,67.99
2018-09-02T06:01:23.639Z,68.00
2018-09-02T06:03:52.783Z,68.34
2018-09-02T06:06:21.082Z,68.82
2018-09-02T06:08:49.331Z,67.97
2018-09-02T06:11:17.602Z,68.31
2018-09-02T06:13:46.215Z,68.47
2018-09-02T06:16:14.695Z,69.12
2018-09-02T06:18:43.115Z,68.79
2018-09-02T06:21:11.422Z,68.29
2018-09-02T06:23:39.899Z,68.06
2018-09-02T06:26:08.155Z,68.58
2018-09-02T06:28:36.349Z,69.19
2018-09-02T06:31:04.503Z,68.30
2018-09-02T06:33:32.792Z,68.96
2018-09-02T06:36:00.971Z,69.09
2018-09-02T06:38:29.271Z,69.46
2018-09-02T06:40:57.463Z,69.20
2018-09-02T06:43:25.621Z,68.95
2018-09-02T06:45:53.791Z,69.57
2018-09-02T06:48:22.072Z,69.88
2018-09-02T06:50:50.375Z,70.07
2018-09-02T06:53:24.983Z,69.96
2018-09-02T06:55:53.275Z,70.01
2018-09-02T06:58:21.512Z,70.23
2018-09-02T07:00:49.700Z,70.10
2018-09-02T07:03:17.913Z,70.56
2018-09-02T07:05:46.144Z,72.08
2018-09-02T07:08:14.400Z,72.90
2018-09-02T07:10:43.212Z,73.84
2018-09-02T07:13:11.642Z,74.23
2018-09-02T07:15:39.917Z,75.62
2018-09-02T07:18:08.220Z,75.24
2018-09-02T07:20:36.387Z,74.72
2018-09-02T07:23:05.126Z,74.38
2018-09-02T07:25:33.727Z,73.59
2018-09-02T07:28:01.955Z,73.69
2018-09-02T07:30:30.317Z,72.90
2018-09-02T07:32:58.755Z,72.88
2018-09-02T07:35:27.059Z,74.03
2018-09-02T07:37:55.547Z,74.62
2018-09-02T07:40:23.706Z,74.06
2018-09-02T07:42:51.970Z,73.08
2018-09-02T07:45:20.690Z,72.86
2018-09-02T07:47:48.979Z,72.19
2018-09-02T07:50:17.286Z,72.34
2018-09-02T07:52:45.547Z,72.83
2018-09-02T07:55:13.814Z,72.78
2018-09-02T07:57:41.987Z,71.05
2018-09-02T08:00:11.159Z,71.07
2018-09-02T08:02:39.774Z,71.75
2018-09-02T08:05:07.947Z,72.01
2018-09-02T08:07:36.118Z,71.69
2018-09-02T08:10:04.616Z,72.53
2018-09-02T08:12:32.930Z,72.35
2018-09-02T08:15:01.097Z,72.00
2018-09-02T08:17:29.321Z,71.78
2018-09-02T08:19:57.963Z,71.21
2018-09-02T08:22:26.476Z,70.79
2018-09-02T08:24:54.787Z,70.80
2018-09-02T08:27:22.999Z,70.76
2018-09-02T08:29:51.195Z,71.66
2018-09-02T08:32:19.566Z,70.36
2018-09-02T08:34:47.844Z,70.46
2018-09-02T08:37:16.027Z,69.26
2018-09-02T08:39:44.204Z,69.22
2018-09-02T08:42:13.659Z,69.09
2018-09-02T08:44:41.834Z,68.14
2018-09-02T08:47:10.088Z,68.42
2018-09-02T08:49:38.267Z,68.99
2018-09-02T08:52:07.221Z,68.18
2018-09-02T08:54:35.639Z,68.01
2018-09-02T08:57:03.884Z,67.91
2018-09-02T08:59:32.126Z,68.93
2018-09-02T09:02:00.334Z,67.99
2018-09-02T09:04:28.773Z,66.89
2018-09-02T09:06:57.004Z,66.12
2018-09-02T09:09:25.216Z,66.41
2018-09-02T09:11:53.386Z,65.96
2018-09-02T09:14:21.586Z,66.59
2018-09-02T09:16:49.934Z,64.33
2018-09-02T09:19:18.023Z,63.65
2018-09-02T09:21:46.250Z,62.60
2018-09-02T09:24:14.429Z,62.08
2018-09-02T09:26:42.719Z,62.22
2018-09-02T09:29:10.921Z,60.01
2018-09-02T09:31:39.130Z,60.61
2018-09-02T09:34:07.451Z,60.50
2018-09-02T09:36:35.647Z,59.50
2018-09-02T09:39:04.879Z,60.04
2018-09-02T09:41:33.088Z,60.42
2018-09-02T09:44:01.333Z,60.31
2018-09-02T09:46:29.770Z,59.25
2018-09-02T09:48:57.948Z,60.03
2018-09-02T09:51:26.169Z,58.24
2018-09-02T09:53:54.003Z,58.30
2018-09-02T09:56:22.193Z,57.81
2018-09-02T09:58:50.510Z,57.43
2018-09-02T10:01:18.750Z,55.65
2018-09-02T10:03:47.025Z,56.18
2018-09-02T10:06:15.134Z,56.07
2018-09-02T10:08:43.422Z,56.04
2018-09-02T10:11:11.624Z,57.03
2018-09-02T10:13:39.830Z,56.41
2018-09-02T10:16:08.037Z,55.16
2018-09-02T10:18:36.211Z,55.31
2018-09-02T10:21:04.454Z,54.68
2018-09-02T10:23:32.645Z,54.89
2018-09-02T10:26:00.864Z,52.87
2018-09-02T10:28:29.185Z,52.95
2018-09-02T10:30:57.543Z,53.15
2018-09-02T10:33:25.900Z,53.17
2018-09-02T10:36:00.770Z,53.23
2018-09-02T10:38:29.040Z,51.70
2018-09-02T10:40:57.268Z,52.34
2018-09-02T10:43:25.452Z,53.18
2018-09-02T10:45:53.654Z,53.12
2018-09-02T10:48:21.908Z,53.11
2018-09-02T10:50:50.136Z,53.24
2018-09-02T10:53:18.303Z,52.61
2018-09-02T10:55:46.990Z,52.96
2018-09-02T10:58:15.258Z,53.87
2018-09-02T11:00:43.542Z,52.59
2018-09-02T11:03:11.770Z,53.31
2018-09-02T11:05:40.023Z,52.68
2018-09-02T11:08:08.322Z,52.78
2018-09-02T11:10:36.539Z,51.20
2018-09-02T11:13:04.879Z,52.20
2018-09-02T11:15:33.038Z,48.72
2018-09-02T11:18:01.323Z,49.59
2018-09-02T11:20:29.551Z,49.33
2018-09-02T11:22:58.202Z,47.12
2018-09-02T11:25:26.510Z,47.13
2018-09-02T11:27:54.714Z,46.78
2018-09-02T11:30:22.926Z,46.41
2018-09-02T11:32:51.166Z,45.80
2018-09-02T11:35:19.586Z,47.24
2018-09-02T11:37:47.823Z,46.81
2018-09-02T11:40:16.214Z,47.25
2018-09-02T11:42:44.454Z,46.76
2018-09-02T11:45:12.750Z,45.19
2018-09-02T11:47:40.956Z,44.53
2018-09-02T11:50:09.217Z,43.84
2018-09-02T11:52:37.482Z,42.99
2018-09-02T11:55:05.758Z,43.05
2018-09-02T11:57:35.357Z,43.61
2018-09-02T12:00:03.853Z,42.96
2018-09-02T12:02:32.168Z,43.87
2018-09-02T12:05:00.433Z,43.50
2018-09-02T12:07:28.647Z,44.99
2018-09-02T12:09:56.860Z,44.35
2018-09-02T12:12:25.069Z,45.42
2018-09-02T12:14:53.505Z,45.21
2018-09-02T12:17:21.599Z,45.39
2018-09-02T12:19:49.795Z,46.13
2018-09-02T12:22:18.054Z,45.79
2018-09-02T12:24:46.310Z,45.63
2018-09-02T12:27:14.548Z,46.56
2018-09-02T12:29:42.778Z,45.89
2018-09-02T12:32:10.946Z,46.83
2018-09-02T12:34:45.699Z,46.22
2018-09-02T12:37:13.987Z,44.58
2018-09-02T12:39:42.249Z,43.92
2018-09-02T12:42:10.518Z,44.48
2018-09-02T12:44:39.598Z,45.38
2018-09-02T12:47:07.954Z,44.87
2018-09-02T12:49:36.142Z,45.07
2018-09-02T12:52:04.511Z,46.00
2018-09-02T12:54:32.696Z,45.34
2018-09-02T12:57:00.988Z,44.97
2018-09-02T12:59:29.216Z,46.08
2018-09-02T13:01:57.763Z,45.75
2018-09-02T13:04:26.006Z,46.86
2018-09-02T13:06:54.256Z,45.88
2018-09-02T13:09:22.592Z,46.26
2018-09-02T13:11:50.879Z,46.93
2018-09-02T13:14:19.319Z,46.48
2018-09-02T13:16:47.556Z,46.28
2018-09-02T13:19:15.887Z,44.81
2018-09-02T13:21:44.460Z,44.86
2018-09-02T13:24:12.688Z,45.17
2018-09-02T13:26:41.007Z,44.24
2018-09-02T13:29:09.175Z,44.46
2018-09-02T13:31:37.494Z,45.19
2018-09-02T13:34:05.752Z,44.46
2018-09-02T13:36:33.971Z,44.42
2018-09-02T13:39:02.269Z,44.13
2018-09-02T13:41:30.520Z,43.08
2018-09-02T13:43:58.754Z,43.98
2018-09-02T13:46:27.009Z,43.01
2018-09-02T13:48:55.548Z,43.91
2018-09-02T13:51:23.868Z,43.40
2018-09-02T13:53:52.051Z,43.91
2018-09-02T13:56:20.246Z,43.69
2018-09-02T13:58:48.566Z,44.22
2018-09-02T14:01:16.811Z,43.78
2018-09-02T14:03:45.025Z,43.36
2018-09-02T14:06:13.322Z,42.29
2018-09-02T14:08:41.667Z,41.46
2018-09-02T14:11:16.512Z,42.10
2018-09-02T14:13:44.746Z,42.30
2018-09-02T14:16:12.954Z,43.24
2018-09-02T14:18:41.238Z,42.13
2018-09-02T14:21:09.619Z,42.26
2018-09-02T14:23:37.817Z,40.68
2018-09-02T14:26:06.158Z,40.40
2018-09-02T14:28:34.473Z,40.22
2018-09-02T14:31:02.965Z,40.17
2018-09-02T14:33:31.219Z,40.57
2018-09-02T14:35:59.547Z,39.90
2018-09-02T14:38:27.868Z,40.68
2018-09-02T14:40:56.513Z,41.61
2018-09-02T14:43:24.942Z,41.40
2018-09-02T14:45:53.209Z,42.19
2018-09-02T14:48:21.483Z,42.71
2018-09-02T14:50:49.841Z,42.53
2018-09-02T14:53:17.933Z,43.17
2018-09-02T14:55:46.372Z,42.87
2018-09-02T14:58:14.739Z,43.10
2018-09-02T15:00:43.112Z,43.12
2018-09-02T15:03:11.338Z,43.58
2018-09-02T15:05:39.594Z,43.65
2018-09-02T15:08:07.887Z,43.28
2018-09-02T15:10:36.091Z,42.88
2018-09-02T15:13:04.275Z,44.29
2018-09-02T15:15:32.513Z,43.18
2018-09-02T15:18:00.739Z,44.19
2018-09-02T15:20:28.943Z,43.81
2018-09-02T15:22:57.255Z,44.04
2018-09-02T15:25:25.475Z,43.85
2018-09-02T15:27:53.718Z,43.35
2018-09-02T15:30:22.599Z,43.87
2018-09-02T15:32:50.789Z,43.77
2018-09-02T15:35:19.090Z,43.01
2018-09-02T15:37:47.295Z,42.76
2018-09-02T15:40:15.574Z,43.46
2018-09-02T15:42:43.772Z,43.44
2018-09-02T15:45:12.054Z,43.60
2018-09-02T15:47:40.288Z,44.10
2018-09-02T15:50:08.920Z,44.02
2018-09-02T15:52:37.249Z,43.58
2018-09-02T15:55:05.603Z,43.32
2018-09-02T15:57:33.834Z,42.93
2018-09-02T16:00:02.069Z,42.86
2018-09-02T16:02:30.393Z,42.87
2018-09-02T16:04:58.553Z,42.21
2018-09-02T16:07:30.466Z,41.25
2018-09-02T16:09:59.501Z,41.35
2018-09-02T16:12:27.748Z,41.24
2018-09-02T16:14:56.508Z,40.59
2018-09-02T16:17:24.780Z,39.80
2018-09-02T16:19:53.023Z,40.83
2018-09-02T16:22:21.268Z,40.29
2018-09-02T16:24:49.479Z,40.06
2018-09-02T16:27:17.678Z,40.22
2018-09-02T16:29:46.023Z,41.23
2018-09-02T16:32:14.125Z,42.04
2018-09-02T16:34:42.372Z,41.09
2018-09-02T16:37:10.636Z,41.42
2018-09-02T16:39:39.355Z,42.43
2018-09-02T16:42:07.531Z,42.44
2018-09-02T16:44:35.734Z,41.79
2018-09-02T16:47:03.992Z,41.67
2018-09-02T16:49:32.238Z,42.45
2018-09-02T16:52:00.447Z,42.62
2018-09-02T16:54:28.640Z,41.98
2018-09-02T16:56:56.813Z,42.68
2018-09-02T16:59:25.095Z,42.18
2018-09-02T17:01:53.297Z,43.09
2018-09-02T17:04:22.406Z,43.27
2018-09-02T17:06:50.613Z,43.43
2018-09-02T17:09:18.855Z,43.10
2018-09-02T17:11:47.230Z,43.01
2018-09-02T17:14:15.337Z,44.23
2018-09-02T17:16:43.623Z,44.48
2018-09-02T17:19:17.745Z,44.15
2018-09-02T17:21:45.992Z,44.78
2018-09-02T17:24:14.258Z,44.36
2018-09-02T17:26:42.468Z,45.29
2018-09-02T17:29:10.715Z,45.23
2018-09-02T17:31:38.889Z,45.88
2018-09-02T17:34:07.243Z,45.47
2018-09-02T17:36:35.459Z,44.78
2018-09-02T17:39:04.823Z,44.92
2018-09-02T17:41:33.014Z,46.21
2018-09-02T17:44:01.225Z,45.33
2018-09-02T17:46:29.426Z,45.66
2018-09-02T17:48:57.636Z,44.97
2018-09-02T17:51:25.875Z,45.07
2018-09-02T17:53:54.133Z,44.90
2018-09-02T17:56:22.352Z,44.76
2018-09-02T17:58:50.616Z,46.22
2018-09-02T18:01:18.911Z,45.59
2018-09-02T18:03:47.194Z,46.57
2018-09-02T18:06:15.424Z,46.42
2018-09-02T18:08:43.673Z,46.24
2018-09-02T18:11:11.934Z,45.54
2018-09-02T18:13:40.383Z,45.95
2018-09-02T18:16:09.144Z,45.00
2018-09-02T18:18:37.855Z,45.54
2018-09-02T18:21:06.072Z,44.86
2018-09-02T18:23:34.257Z,44.98
2018-09-02T18:26:02.655Z,45.41
2018-09-02T18:28:37.504Z,44.95
2018-09-02T18:31:07.107Z,45.61
2018-09-02T18:33:35.290Z,44.98
2018-09-02T18:36:03.516Z,44.92
2018-09-02T18:38:31.755Z,45.31
2018-09-02T18:40:59.960Z,45.41
2018-09-02T18:43:28.403Z,44.93
2018-09-02T18:45:56.672Z,46.07
2018-09-02T18:48:24.879Z,46.14
2018-09-02T18:50:53.091Z,45.55
2018-09-02T18:53:21.315Z,45.75
2018-09-02T18:55:49.528Z,46.54
2018-09-02T18:58:17.759Z,47.34
2018-09-02T19:00:46.043Z,46.97
2018-09-02T19:03:14.302Z,47.40
2018-09-02T19:05:42.455Z,47.17
2018-09-02T19:08:10.679Z,47.66
2018-09-02T19:10:39.002Z,48.37
2018-09-02T19:13:08.237Z,48.00
2018-09-02T19:15:36.494Z,46.95
2018-09-02T19:18:04.695Z,47.91
2018-09-02T19:20:32.910Z,47.91
2018-09-02T19:23:01.108Z,47.46
2018-09-02T19:25:29.356Z,48.06
2018-09-02T19:27:57.608Z,48.42
2018-09-02T19:30:25.791Z,48.49
2018-09-02T19:32:54.018Z,48.35
2018-09-02T19:35:22.438Z,48.29
2018-09-02T19:37:50.723Z,47.86
2018-09-02T19:40:18.925Z,47.49
2018-09-02T19:42:47.082Z,48.41
2018-09-02T19:45:15.316Z,47.51
2018-09-02T19:47:43.542Z,48.20
2018-09-02T19:50:11.724Z,48.16
2018-09-02T19:52:39.922Z,47.22
2018-09-02T19:55:08.140Z,48.06
2018-09-02T19:57:36.368Z,48.30
2018-09-02T20:00:04.778Z,47.79
2018-09-02T20:02:33.049Z,48.65
2018-09-02T20:05:01.271Z,48.19
2018-09-02T20:07:29.600Z,48.95
2018-09-02T20:09:58.117Z,49.37
2018-09-02T20:12:26.358Z,50.54
2018-09-02T20:14:54.572Z,51.62
2018-09-02T20:17:22.898Z,51.18
2018-09-02T20:19:51.094Z,50.97
2018-09-02T20:22:19.333Z,50.41
2018-09-02T20:24:47.963Z,50.10
2018-09-02T20:27:16.276Z,51.00
2018-09-02T20:29:44.563Z,50.74
2018-09-02T20:32:12.897Z,50.77
2018-09-02T20:34:41.285Z,49.81
2018-09-02T20:37:09.607Z,50.65
2018-09-02T20:39:37.871Z,50.42
2018-09-02T20:42:06.217Z,51.24
2018-09-02T20:44:34.472Z,52.09
2018-09-02T20:47:02.872Z,51.28
2018-09-02T20:49:31.072Z,51.18
2018-09-02T20:51:59.471Z,51.07
2018-09-02T20:54:27.819Z,50.62
2018-09-02T20:56:56.018Z,51.66
2018-09-02T20:59:24.214Z,51.12
2018-09-02T21:01:52.584Z,51.12
2018-09-02T21:04:20.876Z,50.02
2018-09-02T21:06:49.099Z,49.68
2018-09-02T21:09:18.033Z,50.81
2018-09-02T21:11:46.416Z,50.60
2018-09-02T21:14:14.643Z,51.49
2018-09-02T21:16:42.843Z,51.66
2018-09-02T21:19:11.128Z,51.32
2018-09-02T21:21:39.352Z,51.18
2018-09-02T21:24:07.558Z,50.30
2018-09-02T21:26:35.834Z,51.00
2018-09-02T21:29:04.079Z,51.13
2018-09-02T21:31:32.355Z,50.82
2018-09-02T21:34:00.568Z,50.90
2018-09-02T21:36:28.892Z,50.87
2018-09-02T21:38:57.187Z,51.71
2018-09-02T21:41:25.396Z,52.16
2018-09-02T21:43:53.652Z,51.80
2018-09-02T21:46:21.879Z,51.88
2018-09-02T21:48:50.053Z,52.22
2018-09-02T21:51:18.303Z,51.67
2018-09-02T21:53:46.474Z,51.31
2018-09-02T21:56:14.682Z,50.99
2018-09-02T21:58:42.883Z,51.88
2018-09-02T22:01:11.126Z,52.21
2018-09-02T22:03:39.377Z,52.26
2018-09-02T22:06:07.639Z,52.34
2018-09-02T22:08:36.134Z,51.88
2018-09-02T22:11:04.384Z,52.05
2018-09-02T22:13:32.728Z,51.99
2018-09-02T22:16:00.939Z,52.92
2018-09-02T22:18:29.187Z,53.13
2018-09-02T22:20:57.439Z,53.58
2018-09-02T22:23:25.709Z,53.54
2018-09-02T22:25:53.934Z,52.89
2018-09-02T22:28:22.175Z,52.79
2018-09-02T22:30:50.386Z,52.71
2018-09-02T22:33:18.691Z,53.17
2018-09-02T22:35:46.894Z,53.71
2018-09-02T22:38:15.403Z,53.89
2018-09-02T22:40:43.975Z,53.30
2018-09-02T22:43:12.226Z,53.81
2018-09-02T22:45:40.430Z,53.83
2018-09-02T22:48:08.938Z,54.86
2018-09-02T22:50:37.134Z,54.59
2018-09-02T22:53:05.319Z,54.40
2018-09-02T22:55:33.555Z,54.42
2018-09-02T22:58:01.955Z,54.05
2018-09-02T23:00:30.037Z,54.31
2018-09-02T23:02:58.329Z,55.24
2018-09-02T23:05:26.544Z,54.60
2018-09-02T23:07:54.799Z,55.25
2018-09-02T23:10:23.061Z,55.13
2018-09-02T23:12:51.384Z,55.28
2018-09-02T23:15:19.566Z,55.59
2018-09-02T23:17:47.804Z,55.55
2018-09-02T23:20:16.888Z,56.57
2018-09-02T23:22:45.115Z,55.76
2018-09-02T23:25:13.451Z,55.49
2018-09-02T23:27:41.631Z,55.95
2018-09-02T23:30:09.839Z,55.57
2018-09-02T23:32:38.019Z,56.73
2018-09-02T23:35:12.570Z,56.59
2018-09-02T23:37:40.843Z,57.73
2018-09-02T23:40:09.038Z,57.73
2018-09-02T23:42:37.227Z,56.65
2018-09-02T23:45:05.911Z,57.12
2018-09-02T23:47:34.133Z,57.07
2018-09-02T23:50:02.362Z,57.42
2018-09-02T23:52:30.555Z,58.10
2018-09-02T23:54:58.748Z,57.99
2018-09-02T23:57:26.942Z,57.35
2018-09-02T23:59:55.143Z,57.76
